createdAt,value
2019-04-10T00:01:23.670Z,100.00
2019-04-10T00:03:53.333Z,100.00
2019-04-10T00:06:23.644Z,100.00
2019-04-10T00:08:53.007Z,100.00
2019-04-10T00:11:22.799Z,100.00
2019-04-10T00:13:53.182Z,100.00
2019-04-10T00:16:22.495Z,100.00
2019-04-10T00:18:51.655Z,100.00
2019-04-10T00:21:21.018Z,100.00
2019-04-10T00:23:51.292Z,100.00
2019-04-10T00:26:21.562Z,100.00
2019-04-10T00:28:51.928Z,100.00
2019-04-10T00:31:22.784Z,100.00
2019-04-10T00:33:52.081Z,100.00
2019-04-10T00:36:21.461Z,100.00
2019-04-10T00:38:50.661Z,100.00
2019-04-10T00:41:19.820Z,100.00
2019-04-10T00:43:49.010Z,100.00
2019-04-10T00:46:18.161Z,100.00
2019-04-10T00:48:48.142Z,100.00
2019-04-10T00:51:17.387Z,100.00
2019-04-10T00:53:47.507Z,100.00
2019-04-10T00:56:16.705Z,100.00
2019-04-10T00:58:45.897Z,100.00
2019-04-10T01:01:15.988Z,100.00
2019-04-10T01:03:48.136Z,100.00
2019-04-10T01:06:16.744Z,100.00
2019-04-10T01:08:45.900Z,100.00
2019-04-10T01:11:15.254Z,100.00
2019-04-10T01:13:45.379Z,100.00
2019-04-10T01:16:16.259Z,100.00
2019-04-10T01:18:45.781Z,100.00
2019-04-10T01:21:14.998Z,100.00
2019-04-10T01:23:44.940Z,100.00
2019-04-10T01:26:14.947Z,100.00
2019-04-10T01:28:45.120Z,100.00
2019-04-10T01:31:15.094Z,100.00
2019-04-10T01:33:45.927Z,100.00
2019-04-10T01:36:15.411Z,100.00
2019-04-10T01:38:46.246Z,100.00
2019-04-10T01:41:15.526Z,100.00
2019-04-10T01:43:44.715Z,100.00
2019-04-10T01:46:13.907Z,100.00
2019-04-10T01:48:44.023Z,100.00
2019-04-10T01:51:13.331Z,100.00
2019-04-10T01:53:42.477Z,100.00
2019-04-10T01:56:23.967Z,100.00
2019-04-10T01:58:44.158Z,100.00
2019-04-10T02:01:26.221Z,100.00
2019-04-10T02:03:55.325Z,100.00
2019-04-10T02:06:25.317Z,100.00
2019-04-10T02:08:54.448Z,100.00
2019-04-10T02:11:24.024Z,100.00
2019-04-10T02:13:54.006Z,100.00
2019-04-10T02:16:24.617Z,100.00
2019-04-10T02:18:54.168Z,100.00
2019-04-10T02:21:23.492Z,100.00
2019-04-10T02:23:52.605Z,100.00
2019-04-10T02:26:21.873Z,100.00
2019-04-10T02:28:51.393Z,100.00
2019-04-10T02:31:21.557Z,100.00
2019-04-10T02:33:51.910Z,100.00
2019-04-10T02:36:21.550Z,100.00
2019-04-10T02:39:01.944Z,100.00
2019-04-10T02:41:21.803Z,100.00
2019-04-10T02:43:51.425Z,100.00
2019-04-10T02:46:21.973Z,100.00
2019-04-10T02:48:52.035Z,100.00
2019-04-10T02:51:22.889Z,100.00
2019-04-10T02:53:53.830Z,100.00
2019-04-10T02:56:25.175Z,100.00
2019-04-10T02:58:54.419Z,100.00
2019-04-10T03:01:25.084Z,100.00
2019-04-10T03:03:55.546Z,100.00
2019-04-10T03:06:24.873Z,100.00
2019-04-10T03:09:07.825Z,100.00
2019-04-10T03:11:26.480Z,100.00
2019-04-10T03:13:59.112Z,100.00
2019-04-10T03:16:29.110Z,100.00
2019-04-10T03:18:58.265Z,100.00
2019-04-10T03:21:27.446Z,100.00
2019-04-10T03:23:56.732Z,100.00
2019-04-10T03:26:25.915Z,100.00
2019-04-10T03:28:55.649Z,100.00
2019-04-10T03:31:27.161Z,100.00
2019-04-10T03:34:03.372Z,100.00
2019-04-10T03:36:40.095Z,100.00
2019-04-10T03:39:10.783Z,100.00
2019-04-10T03:41:40.304Z,100.00
2019-04-10T03:44:10.295Z,100.00
2019-04-10T03:46:40.209Z,100.00
2019-04-10T03:49:09.749Z,100.00
2019-04-10T03:51:41.065Z,100.00
2019-04-10T03:54:11.148Z,100.00
2019-04-10T03:56:40.913Z,100.00
2019-04-10T03:59:11.779Z,100.00
2019-04-10T04:01:41.017Z,100.00
2019-04-10T04:04:10.183Z,100.00
2019-04-10T04:06:39.827Z,100.00
2019-04-10T04:09:11.996Z,100.00
2019-04-10T04:11:40.283Z,100.00
2019-04-10T04:14:10.331Z,100.00
2019-04-10T04:16:39.596Z,100.00
2019-04-10T04:19:08.765Z,100.00
2019-04-10T04:21:37.928Z,100.00
2019-04-10T04:24:07.192Z,100.00
2019-04-10T04:26:37.200Z,100.00
2019-04-10T04:29:07.429Z,100.00
2019-04-10T04:31:36.842Z,100.00
2019-04-10T04:34:06.236Z,100.00
2019-04-10T04:36:35.708Z,100.00
2019-04-10T04:39:17.845Z,100.00
2019-04-10T04:41:37.978Z,100.00
2019-04-10T04:44:08.088Z,100.00
2019-04-10T04:46:38.621Z,100.00
2019-04-10T04:49:07.869Z,100.00
2019-04-10T04:51:38.934Z,100.00
2019-04-10T04:54:08.736Z,100.00
2019-04-10T04:56:38.310Z,100.00
2019-04-10T04:59:07.995Z,100.00
2019-04-10T05:01:38.296Z,100.00
2019-04-10T05:04:08.958Z,100.00
2019-04-10T05:06:38.305Z,100.00
2019-04-10T05:09:08.042Z,100.00
2019-04-10T05:11:38.428Z,100.00
2019-04-10T05:14:07.739Z,100.00
2019-04-10T05:16:37.055Z,100.00
2019-04-10T05:19:06.223Z,100.00
2019-04-10T05:21:35.438Z,100.00
2019-04-10T05:24:05.280Z,100.00
2019-04-10T05:26:34.480Z,100.00
2019-04-10T05:29:04.650Z,100.00
2019-04-10T05:31:34.279Z,100.00
2019-04-10T05:34:03.456Z,100.00
2019-04-10T05:36:33.535Z,100.00
2019-04-10T05:39:04.526Z,100.00
2019-04-10T05:41:33.731Z,100.00
2019-04-10T05:44:05.058Z,100.00
2019-04-10T05:46:34.635Z,100.00
2019-04-10T05:49:04.456Z,100.00
2019-04-10T05:51:33.904Z,100.00
2019-04-10T05:54:03.379Z,100.00
2019-04-10T05:56:32.525Z,100.00
2019-04-10T05:59:01.723Z,100.00
2019-04-10T06:01:35.839Z,100.00
2019-04-10T06:04:03.071Z,100.00
2019-04-10T06:06:32.609Z,100.00
2019-04-10T06:09:02.578Z,100.00
2019-04-10T06:11:33.045Z,100.00
2019-04-10T06:14:03.229Z,100.00
2019-04-10T06:16:32.475Z,100.00
2019-04-10T06:19:01.893Z,100.00
2019-04-10T06:21:31.500Z,100.00
2019-04-10T06:24:00.689Z,100.00
2019-04-10T06:26:30.046Z,100.00
2019-04-10T06:28:59.356Z,100.00
2019-04-10T06:31:28.586Z,100.00
2019-04-10T06:33:58.416Z,100.00
2019-04-10T06:36:27.687Z,100.00
2019-04-10T06:38:56.861Z,100.00
2019-04-10T06:41:26.383Z,100.00
2019-04-10T06:43:55.713Z,100.00
2019-04-10T06:46:24.870Z,99.65
2019-04-10T06:48:54.280Z,100.00
2019-04-10T06:51:23.478Z,100.00
2019-04-10T06:54:01.787Z,99.67
2019-04-10T06:56:23.544Z,99.66
2019-04-10T06:58:52.732Z,98.72
2019-04-10T07:01:25.525Z,98.87
2019-04-10T07:04:02.110Z,97.96
2019-04-10T07:06:39.343Z,98.02
2019-04-10T07:08:57.178Z,97.56
2019-04-10T07:11:30.438Z,97.41
2019-04-10T07:13:58.485Z,97.77
2019-04-10T07:16:31.502Z,96.97
2019-04-10T07:19:03.081Z,96.60
2019-04-10T07:21:32.824Z,96.55
2019-04-10T07:24:06.327Z,95.80
2019-04-10T07:26:39.377Z,95.20
2019-04-10T07:29:03.029Z,95.09
2019-04-10T07:31:35.031Z,95.31
2019-04-10T07:34:03.344Z,95.73
2019-04-10T07:36:32.955Z,93.84
2019-04-10T07:39:02.064Z,94.77
2019-04-10T07:41:31.482Z,94.67
2019-04-10T07:44:01.720Z,93.57
2019-04-10T07:46:31.312Z,93.39
2019-04-10T07:49:00.801Z,93.33
2019-04-10T07:51:29.977Z,91.66
2019-04-10T07:53:59.783Z,91.01
2019-04-10T07:56:29.134Z,92.10
2019-04-10T07:58:58.381Z,89.61
2019-04-10T08:01:27.560Z,89.64
2019-04-10T08:03:57.614Z,89.12
2019-04-10T08:06:27.777Z,90.62
2019-04-10T08:08:57.034Z,88.11
2019-04-10T08:11:26.243Z,87.91
2019-04-10T08:13:56.137Z,86.62
2019-04-10T08:16:25.651Z,88.30
2019-04-10T08:18:56.217Z,86.66
2019-04-10T08:21:25.531Z,87.66
2019-04-10T08:23:54.906Z,86.59
2019-04-10T08:26:24.735Z,86.32
2019-04-10T08:28:53.938Z,85.85
2019-04-10T08:31:23.852Z,84.73
2019-04-10T08:33:53.195Z,84.11
2019-04-10T08:36:23.448Z,85.60
2019-04-10T08:38:52.856Z,85.63
2019-04-10T08:41:21.940Z,86.19
2019-04-10T08:43:52.203Z,85.55
2019-04-10T08:46:21.863Z,86.70
2019-04-10T08:48:51.893Z,85.62
2019-04-10T08:51:21.436Z,86.28
2019-04-10T08:53:53.648Z,86.99
2019-04-10T08:56:23.076Z,85.91
2019-04-10T08:58:52.276Z,85.67
2019-04-10T09:01:21.443Z,86.01
2019-04-10T09:03:51.023Z,85.72
2019-04-10T09:06:20.172Z,84.95
2019-04-10T09:08:49.369Z,84.58
2019-04-10T09:11:24.652Z,84.61
2019-04-10T09:13:49.578Z,84.03
2019-04-10T09:16:18.746Z,84.23
2019-04-10T09:18:47.922Z,84.24
2019-04-10T09:21:17.547Z,82.89
2019-04-10T09:23:52.314Z,83.00
2019-04-10T09:26:17.655Z,82.95
2019-04-10T09:28:50.785Z,82.86
2019-04-10T09:31:20.162Z,82.00
2019-04-10T09:33:49.584Z,80.13
2019-04-10T09:36:20.170Z,80.97
2019-04-10T09:38:49.374Z,82.11
2019-04-10T09:41:19.478Z,79.43
2019-04-10T09:43:49.684Z,80.45
2019-04-10T09:46:20.168Z,78.21
2019-04-10T09:48:49.951Z,78.67
2019-04-10T09:51:19.715Z,77.66
2019-04-10T09:53:49.011Z,76.52
2019-04-10T09:56:20.081Z,76.44
2019-04-10T09:58:49.233Z,76.57
2019-04-10T10:01:19.971Z,76.97
2019-04-10T10:03:51.041Z,76.91
2019-04-10T10:06:27.428Z,75.67
2019-04-10T10:08:52.208Z,74.75
2019-04-10T10:11:22.213Z,74.75
2019-04-10T10:13:52.281Z,74.79
2019-04-10T10:16:21.476Z,72.68
2019-04-10T10:18:51.867Z,72.99
2019-04-10T10:21:21.163Z,71.60
2019-04-10T10:23:50.327Z,70.91
2019-04-10T10:26:19.781Z,71.82
2019-04-10T10:28:50.489Z,71.08
2019-04-10T10:31:20.179Z,70.69
2019-04-10T10:33:50.114Z,71.50
2019-04-10T10:36:19.962Z,70.01
2019-04-10T10:39:01.741Z,70.19
2019-04-10T10:41:20.483Z,69.68
2019-04-10T10:43:50.833Z,68.34
2019-04-10T10:46:20.106Z,68.13
2019-04-10T10:48:49.250Z,67.61
2019-04-10T10:51:18.456Z,68.56
2019-04-10T10:53:48.275Z,68.99
2019-04-10T10:56:18.236Z,68.56
2019-04-10T10:58:48.533Z,68.87
2019-04-10T11:01:18.020Z,68.90
2019-04-10T11:03:47.310Z,67.89
2019-04-10T11:06:17.736Z,68.37
2019-04-10T11:08:47.771Z,67.67
2019-04-10T11:11:17.167Z,66.83
2019-04-10T11:13:46.931Z,67.40
2019-04-10T11:16:16.997Z,66.56
2019-04-10T11:18:46.887Z,64.68
2019-04-10T11:21:16.848Z,65.38
2019-04-10T11:23:46.871Z,66.27
2019-04-10T11:26:20.543Z,66.00
2019-04-10T11:28:47.933Z,65.70
2019-04-10T11:31:17.520Z,65.77
2019-04-10T11:33:50.241Z,64.48
2019-04-10T11:36:19.880Z,64.97
2019-04-10T11:38:49.413Z,63.14
2019-04-10T11:41:19.356Z,62.15
2019-04-10T11:43:50.126Z,62.22
2019-04-10T11:46:20.143Z,61.62
2019-04-10T11:48:49.375Z,61.44
2019-04-10T11:51:18.635Z,60.60
2019-04-10T11:53:51.599Z,61.11
2019-04-10T11:56:19.334Z,61.04
2019-04-10T11:58:55.482Z,60.76
2019-04-10T12:01:22.554Z,60.84
2019-04-10T12:03:54.341Z,58.71
2019-04-10T12:06:25.081Z,58.05
2019-04-10T12:09:13.635Z,59.17
2019-04-10T12:11:24.692Z,58.56
2019-04-10T12:13:54.582Z,58.54
2019-04-10T12:16:25.086Z,59.26
2019-04-10T12:18:55.872Z,58.09
2019-04-10T12:21:26.230Z,57.94
2019-04-10T12:23:55.616Z,57.97
2019-04-10T12:26:25.519Z,58.05
2019-04-10T12:28:54.676Z,57.24
2019-04-10T12:31:24.034Z,56.95
2019-04-10T12:33:53.198Z,57.97
2019-04-10T12:36:24.655Z,57.67
2019-04-10T12:38:54.086Z,56.44
2019-04-10T12:41:23.535Z,56.81
2019-04-10T12:43:53.479Z,56.36
2019-04-10T12:46:22.713Z,56.77
2019-04-10T12:48:52.704Z,55.70
2019-04-10T12:51:22.028Z,56.78
2019-04-10T12:53:51.983Z,57.29
2019-04-10T12:56:22.167Z,57.45
2019-04-10T12:58:51.453Z,55.46
2019-04-10T13:01:20.745Z,56.66
2019-04-10T13:03:49.895Z,55.40
2019-04-10T13:06:20.078Z,55.19
2019-04-10T13:08:57.791Z,54.09
2019-04-10T13:11:20.657Z,54.13
2019-04-10T13:13:51.137Z,53.58
2019-04-10T13:16:20.898Z,54.60
2019-04-10T13:18:50.162Z,54.26
2019-04-10T13:21:20.158Z,54.48
2019-04-10T13:23:49.631Z,54.38
2019-04-10T13:26:19.001Z,55.31
2019-04-10T13:28:48.491Z,54.60
2019-04-10T13:31:19.247Z,54.06
2019-04-10T13:33:49.007Z,53.70
2019-04-10T13:36:18.167Z,53.28
2019-04-10T13:38:48.469Z,53.21
2019-04-10T13:41:18.606Z,53.41
2019-04-10T13:43:48.142Z,53.37
2019-04-10T13:46:18.464Z,54.51
2019-04-10T13:48:49.359Z,54.79
2019-04-10T13:51:19.309Z,53.39
2019-04-10T13:53:48.768Z,54.63
2019-04-10T13:56:19.107Z,53.96
2019-04-10T13:58:48.785Z,54.14
2019-04-10T14:01:25.285Z,52.91
2019-04-10T14:03:54.819Z,53.09
2019-04-10T14:06:23.997Z,53.13
2019-04-10T14:09:08.158Z,53.74
2019-04-10T14:11:24.895Z,53.28
2019-04-10T14:13:55.730Z,53.13
2019-04-10T14:16:26.676Z,53.38
2019-04-10T14:18:57.014Z,53.09
2019-04-10T14:21:29.065Z,53.98
2019-04-10T14:23:58.475Z,53.66
2019-04-10T14:26:43.925Z,52.60
2019-04-10T14:29:12.568Z,52.84
2019-04-10T14:31:46.912Z,52.62
2019-04-10T14:34:18.433Z,53.68
2019-04-10T14:36:48.467Z,53.27
2019-04-10T14:39:20.900Z,53.33
2019-04-10T14:41:49.787Z,52.90
2019-04-10T14:44:20.722Z,53.33
2019-04-10T14:46:49.899Z,53.33
2019-04-10T14:49:20.951Z,53.64
2019-04-10T14:51:50.107Z,53.30
2019-04-10T14:54:19.612Z,54.28
2019-04-10T14:56:48.836Z,53.71
2019-04-10T14:59:18.005Z,53.83
2019-04-10T15:01:48.541Z,53.83
2019-04-10T15:04:17.939Z,54.45
2019-04-10T15:06:47.985Z,53.84
2019-04-10T15:09:25.339Z,53.88
2019-04-10T15:11:51.517Z,54.44
2019-04-10T15:14:21.606Z,52.86
2019-04-10T15:16:55.456Z,52.97
2019-04-10T15:19:22.630Z,52.11
2019-04-10T15:21:53.662Z,52.49
2019-04-10T15:24:23.785Z,51.32
2019-04-10T15:26:54.067Z,51.69
2019-04-10T15:29:24.713Z,51.44
2019-04-10T15:31:54.170Z,51.84
2019-04-10T15:34:23.368Z,51.61
2019-04-10T15:36:52.886Z,51.42
2019-04-10T15:39:31.430Z,51.40
2019-04-10T15:41:52.978Z,51.16
2019-04-10T15:44:22.150Z,51.90
2019-04-10T15:46:51.388Z,51.01
2019-04-10T15:49:20.517Z,50.88
2019-04-10T15:51:49.833Z,51.33
2019-04-10T15:54:19.012Z,51.23
2019-04-10T15:56:48.170Z,51.06
2019-04-10T15:59:17.387Z,51.14
2019-04-10T16:01:47.636Z,51.52
2019-04-10T16:04:17.148Z,50.98
2019-04-10T16:06:47.397Z,50.81
2019-04-10T16:09:16.971Z,50.64
2019-04-10T16:12:06.099Z,51.31
2019-04-10T16:14:35.908Z,50.49
2019-04-10T16:17:19.425Z,51.36
2019-04-10T16:20:02.098Z,51.55
2019-04-10T16:22:37.475Z,52.17
2019-04-10T16:25:13.767Z,51.34
2019-04-10T16:27:45.274Z,51.49
2019-04-10T16:30:18.623Z,51.24
2019-04-10T16:32:50.091Z,51.50
2019-04-10T16:35:19.615Z,51.86
2019-04-10T16:37:49.513Z,52.02
2019-04-10T16:40:19.149Z,52.04
2019-04-10T16:42:48.778Z,52.43
2019-04-10T16:45:19.516Z,52.86
2019-04-10T16:47:48.789Z,52.01
2019-04-10T16:50:17.997Z,52.33
2019-04-10T16:52:47.439Z,51.81
2019-04-10T16:57:49.433Z,52.09
2019-04-10T17:00:20.582Z,51.62
2019-04-10T17:02:50.643Z,52.59
2019-04-10T17:05:20.645Z,52.16
2019-04-10T17:07:50.046Z,52.36
2019-04-10T17:10:24.358Z,52.92
2019-04-10T17:12:52.327Z,52.46
2019-04-10T17:15:21.805Z,52.35
2019-04-10T17:17:51.253Z,52.83
2019-04-10T17:20:20.729Z,52.72
2019-04-10T17:22:50.208Z,52.94
2019-04-10T17:25:20.119Z,53.46
2019-04-10T17:27:50.039Z,53.08
2019-04-10T17:30:20.258Z,53.76
2019-04-10T17:32:49.456Z,54.52
2019-04-10T17:35:19.297Z,54.27
2019-04-10T17:37:49.944Z,54.63
2019-04-10T17:40:30.132Z,55.51
2019-04-10T17:42:52.745Z,55.46
2019-04-10T17:45:22.982Z,55.91
2019-04-10T17:47:54.626Z,56.22
2019-04-10T17:50:24.653Z,55.93
2019-04-10T17:52:54.124Z,56.08
2019-04-10T17:55:23.346Z,56.32
2019-04-10T17:57:54.511Z,56.21
2019-04-10T18:00:31.275Z,56.07
2019-04-10T18:03:01.221Z,56.39
2019-04-10T18:05:30.879Z,56.30
2019-04-10T18:08:00.801Z,56.45
2019-04-10T18:10:41.112Z,56.86
2019-04-10T18:13:01.242Z,56.96
2019-04-10T18:15:32.436Z,57.10
2019-04-10T18:18:03.399Z,57.20
2019-04-10T18:20:33.777Z,57.55
2019-04-10T18:23:03.146Z,58.40
2019-04-10T18:25:32.462Z,58.36
2019-04-10T18:28:01.705Z,58.17
2019-04-10T18:30:32.997Z,58.00
2019-04-10T18:33:04.696Z,58.05
2019-04-10T18:35:35.273Z,58.79
2019-04-10T18:38:05.613Z,58.51
2019-04-10T18:40:35.288Z,59.25
2019-04-10T18:43:05.968Z,59.78
2019-04-10T18:45:35.619Z,59.54
2019-04-10T18:48:06.112Z,61.42
2019-04-10T18:50:36.193Z,61.71
2019-04-10T18:53:06.745Z,61.38
2019-04-10T18:55:36.462Z,62.48
2019-04-10T18:58:08.042Z,63.72
2019-04-10T19:00:56.807Z,63.76
2019-04-10T19:03:56.228Z,64.97
2019-04-10T19:06:29.579Z,66.71
2019-04-10T19:09:07.574Z,66.40
2019-04-10T19:11:33.517Z,62.64
2019-04-10T19:14:00.648Z,63.12
2019-04-10T19:16:30.428Z,64.92
2019-04-10T19:18:59.914Z,66.05
2019-04-10T19:21:29.430Z,66.71
2019-04-10T19:23:58.655Z,66.48
2019-04-10T19:26:27.879Z,66.94
2019-04-10T19:28:57.216Z,67.63
2019-04-10T19:31:27.750Z,66.18
2019-04-10T19:33:57.209Z,64.08
2019-04-10T19:36:26.400Z,63.84
2019-04-10T19:38:55.878Z,65.98
2019-04-10T19:41:30.905Z,67.13
2019-04-10T19:43:56.869Z,66.24
2019-04-10T19:46:29.266Z,65.71
2019-04-10T19:48:59.646Z,65.81
2019-04-10T19:51:30.073Z,66.92
2019-04-10T19:54:01.561Z,66.58
2019-04-10T19:56:30.815Z,66.64
2019-04-10T19:59:00.776Z,66.53
2019-04-10T20:01:31.411Z,67.12
2019-04-10T20:04:01.915Z,67.77
2019-04-10T20:06:32.457Z,69.13
2019-04-10T20:09:01.794Z,68.55
2019-04-10T20:11:37.516Z,69.17
2019-04-10T20:14:02.243Z,69.76
2019-04-10T20:16:31.506Z,70.54
2019-04-10T20:19:01.334Z,70.85
2019-04-10T20:21:30.765Z,71.67
2019-04-10T20:24:00.602Z,71.73
2019-04-10T20:26:31.399Z,72.14
2019-04-10T20:29:00.708Z,72.53
2019-04-10T20:31:33.163Z,73.36
2019-04-10T20:34:03.286Z,73.62
2019-04-10T20:36:33.237Z,73.17
2019-04-10T20:39:03.739Z,72.39
2019-04-10T20:41:45.024Z,72.91
2019-04-10T20:44:04.507Z,73.80
2019-04-10T20:46:33.988Z,73.49
2019-04-10T20:49:03.220Z,73.44
2019-04-10T20:51:32.575Z,73.44
2019-04-10T20:54:01.752Z,74.79
2019-04-10T20:56:31.047Z,75.11
2019-04-10T20:59:01.424Z,75.87
2019-04-10T21:01:30.989Z,76.46
2019-04-10T21:04:00.869Z,75.11
2019-04-10T21:06:30.285Z,73.17
2019-04-10T21:09:01.000Z,68.25
2019-04-10T21:11:31.330Z,68.26
2019-04-10T21:14:00.610Z,66.57
2019-04-10T21:16:29.777Z,66.90
2019-04-10T21:18:58.965Z,68.56
2019-04-10T21:21:28.564Z,69.55
2019-04-10T21:23:58.043Z,69.59
2019-04-10T21:26:28.291Z,70.60
2019-04-10T21:28:57.507Z,69.38
2019-04-10T21:32:05.206Z,69.28
2019-04-10T21:34:39.103Z,69.21
2019-04-10T21:37:08.313Z,68.05
2019-04-10T21:39:38.138Z,68.09
2019-04-10T21:42:14.838Z,66.61
2019-04-10T21:44:38.481Z,66.39
2019-04-10T21:47:08.822Z,63.78
2019-04-10T21:49:38.135Z,64.34
2019-04-10T21:52:07.749Z,63.96
2019-04-10T21:54:47.945Z,63.27
2019-04-10T21:57:09.594Z,63.22
2019-04-10T22:03:04.989Z,60.60
2019-04-10T22:05:37.328Z,61.07
2019-04-10T22:08:17.169Z,61.13
2019-04-10T22:10:48.210Z,60.96
2019-04-10T22:13:17.711Z,60.84
2019-04-10T22:15:49.096Z,60.17
2019-04-10T22:18:18.357Z,60.46
2019-04-10T22:20:47.958Z,60.76
2019-04-10T22:23:18.065Z,60.90
2019-04-10T22:25:47.965Z,60.76
2019-04-10T22:28:17.434Z,60.68
2019-04-10T22:30:46.624Z,61.18
2019-04-10T22:33:16.074Z,60.68
2019-04-10T22:35:46.272Z,60.39
2019-04-10T22:38:15.882Z,60.45
2019-04-10T22:40:46.250Z,60.24
2019-04-10T22:43:15.930Z,60.51
2019-04-10T22:45:45.138Z,61.15
2019-04-10T22:48:14.697Z,60.83
2019-04-10T22:50:44.987Z,60.85
2019-04-10T22:53:15.177Z,60.46
2019-04-10T22:55:44.597Z,60.23
2019-04-10T22:58:14.855Z,60.65
2019-04-10T23:00:44.225Z,60.88
2019-04-10T23:03:13.530Z,60.72
2019-04-10T23:05:43.030Z,60.54
2019-04-10T23:08:13.308Z,60.55
2019-04-10T23:10:43.465Z,60.81
2019-04-10T23:13:13.967Z,60.62
2019-04-10T23:15:43.995Z,60.25
2019-04-10T23:18:13.260Z,60.34
2019-04-10T23:20:43.765Z,60.59
2019-04-10T23:23:13.133Z,60.63
2019-04-10T23:25:42.678Z,61.12
2019-04-10T23:28:12.128Z,60.76
2019-04-10T23:30:41.419Z,60.85
2019-04-10T23:33:10.590Z,61.34
2019-04-10T23:35:39.772Z,61.56
2019-04-10T23:38:09.217Z,61.36
2019-04-10T23:40:38.348Z,61.93
2019-04-10T23:43:13.575Z,62.50
2019-04-10T23:45:39.761Z,63.64
2019-04-10T23:48:09.013Z,64.53
2019-04-10T23:50:38.609Z,63.53
2019-04-10T23:53:08.609Z,63.33
2019-04-10T23:55:37.916Z,63.09
2019-04-10T23:58:07.704Z,63.00
